AirNav   Pilot Hours Calculator
 
 1220 users online  

58KY Willow Island Airpark
Finchville, Kentucky, USA

GOING TO FINCHVILLE?


FAA INFORMATION EFFECTIVE 26 MARCH 2020

Location

FAA Identifier: 58KY
Lat/Long: 38-07-15.2400N 085-19-54.8370W
38-07.254000N 085-19.913950W
38.1209000,-85.3318992
(estimated)
Elevation: 740 ft. / 226 m (estimated)
Variation: 02W (1985)
From city: 2 miles S of FINCHVILLE, KY
Time zone: UTC -4 (UTC -5 during Standard Time)
Zip code: 40071

Airport Operations

Airport use: Private use. Permission required prior to landing
Activation date: 11/1989
Control tower: no
ARTCC: INDIANAPOLIS CENTER
FSS: LOUISVILLE FLIGHT SERVICE STATION
Attendance: UNATNDD
Wind indicator: yes
Segmented circle: yes

Airport Communications

WX ASOS at LOU (17 nm W): PHONE 502-473-0693
WX ASOS at SDF (19 nm W): PHONE 502-367-1492

Nearby radio navigation aids

VOR radial/distance  VOR name  Freq  Var
IIUr084/11.6LOUISVILLE VORTAC114.8001E
FFTr263/(20.3)FRANKFORT VOR109.4003W
FTKr068/32.9FORT KNOX VOR/DME109.6001W
EWOr028/33.6NEW HOPE VOR/DME110.8001E

 
NDB name  Hdg/Dist  Freq  Var  ID
LAANG100/14.341404WLK .-.. -.-
GODMAN075/32.039603WGOI --. --- ..

Airport Services

Runway Information

Runway 9/27

Dimensions: 2500 x 100 ft. / 762 x 30 m
Surface: turf
Runway edge markings: 09/27 TIRES PAINTED WHITE.
RUNWAY 9  RUNWAY 27
Traffic pattern: leftleft
Markings: NSTDNSTD

Airport Ownership and Management from official FAA records

Ownership: Privately-owned
Owner: THOMAS E. EVERHART
RT 3, BOX 317A
TAYLORSVILLE, KY 40071
Phone 502-551-7928
Manager: THOMAS E. EVERHART
RT 3, BOX 317A
TAYLORSVILLE, KY 40071
Phone 502-551-7928

Airport Operational Statistics

Aircraft based on the field: 1
Single engine airplanes: 1
    

Additional Remarks

FOR CD CTC LOUISVILLE APCH AT 502-375-7499

Instrument Procedures

There are no published instrument procedures at 58KY.

Some nearby airports with instrument procedures:

KLOU - Bowman Field Airport (17 nm W)
KSDF - Louisville Muhammad Ali International Airport (19 nm W)
KBRY - Samuels Field Airport (20 nm SW)
KFFT - Capital City Airport (20 nm E)
KJVY - Clark Regional Airport (24 nm NW)
 
Loc | Ops | Rwys | IFR | FBO | Links
Com | Nav | Svcs | Stats | Notes
Area around 58KY (Willow Island Airpark)
 
Road maps at: MapQuest Bing Google
 
Aerial photo
WARNING: Photo may not be current or correct
Aerial photo of 58KY (Willow Island Airpark)
Photo taken 10-Dec-2006

Do you have a better or more recent aerial photo of Willow Island Airpark that you would like to share? If so, please send us your photo.

 
Sectional chart

 
Airport distance calculator
Flying to Willow Island Airpark? Find the distance to fly.

From to 58KY

Sunrise and sunset
Times for 30-Mar-2020
 Local
(UTC-4)
 Zulu
(UTC)
Morning civil twilight07:0211:02
Sunrise07:2911:29
Sunset20:0200:02
Evening civil twilight20:2900:29

Current date and time
Zulu (UTC)  30-Mar-2020 20:35:47
Local (UTC-4)  30-Mar-2020 16:35:47
 
METAR
KLOU 
17nm W 
301953Z 30012G20KT 10SM CLR 17/M01 A3011 RMK AO2 SLP194 T01721006
KSDF 
19nm W 
301956Z 31007KT 10SM OVC210 18/M02 A3011 RMK AO2 SLP194 T01831017
KBRY 
20nm SW 
301955Z AUTO 32008KT 277V337 10SM CLR 18/M02 A3009 RMK AO1
KFFT 
21nm E 
301953Z AUTO 30013G18KT 10SM CLR 18/M01 A3010 RMK AO2 SLP188 T01831006
KJVY 
24nm NW 
301955Z AUTO 31012G15KT 10SM CLR 17/00 A3012 RMK AO2 T01701005
K6I2 
30nm S 
301950Z AUTO 24007KT 10SM CLR 17/00 A3012 RMK AO2
KFTK 
33nm SW 
301956Z AUTO 30008KT 10SM CLR 18/M02 A3012 RMK AO2 SLP201 T01801023 $
TAF
KSDF 
19nm W 
301730Z 3018/3124 30012G18KT P6SM BKN250 FM302200 34006KT P6SM OVC250 FM311000 03007KT P6SM OVC100 FM311300 04007KT P6SM VCSH OVC040 FM311600 03006KT P6SM VCSH OVC025 FM312100 35011KT P6SM OVC050
NOTAMs
Click for the latest NOTAMs
NOTAMs are issued by the DoD/FAA and will open in a separate window not controlled by AirNav.

 

 
 

Would you like to see your business listed on this page?

 If your business provides an interesting product or service to pilots, flight crews, aircraft, or users of the Willow Island Airpark, you should consider listing it here.  To start the listing process, click on the button below
 
Add a business
 

Other Pages about Willow Island Airpark

Update a link
 
Copyright © AirNav, LLC. All rights reserved. Privacy Policy  Contact